sensor_id;sensor_type;location;lat;lon;timestamp;temperature;humidity
12233;DHT22;6179;51.748;8.728;2023-04-15T00:01:22;7.30;95.10
12233;DHT22;6179;51.748;8.728;2023-04-15T00:07:24;7.20;96.00
12233;DHT22;6179;51.748;8.728;2023-04-15T00:13:24;7.50;94.70
12233;DHT22;6179;51.748;8.728;2023-04-15T00:19:25;7.30;95.70
12233;DHT22;6179;51.748;8.728;2023-04-15T00:25:26;7.10;96.20
12233;DHT22;6179;51.748;8.728;2023-04-15T00:31:28;7.40;95.50
12233;DHT22;6179;51.748;8.728;2023-04-15T00:37:30;7.70;94.40
12233;DHT22;6179;51.748;8.728;2023-04-15T00:43:31;7.30;95.20
12233;DHT22;6179;51.748;8.728;2023-04-15T00:49:32;7.20;96.30
12233;DHT22;6179;51.748;8.728;2023-04-15T00:55:33;7.80;94.20
12233;DHT22;6179;51.748;8.728;2023-04-15T01:01:35;7.70;94.20
12233;DHT22;6179;51.748;8.728;2023-04-15T01:07:36;7.70;93.70
12233;DHT22;6179;51.748;8.728;2023-04-15T01:13:37;7.70;93.20
12233;DHT22;6179;51.748;8.728;2023-04-15T01:19:39;7.10;95.10
12233;DHT22;6179;51.748;8.728;2023-04-15T01:25:41;7.20;95.40
12233;DHT22;6179;51.748;8.728;2023-04-15T01:31:52;7.70;93.80
12233;DHT22;6179;51.748;8.728;2023-04-15T01:38:02;7.70;93.10
12233;DHT22;6179;51.748;8.728;2023-04-15T01:44:05;7.50;94.30
12233;DHT22;6179;51.748;8.728;2023-04-15T01:50:06;7.30;94.10
12233;DHT22;6179;51.748;8.728;2023-04-15T01:56:08;6.80;95.70
12233;DHT22;6179;51.748;8.728;2023-04-15T02:02:08;6.50;96.80
12233;DHT22;6179;51.748;8.728;2023-04-15T02:08:09;6.40;97.50
12233;DHT22;6179;51.748;8.728;2023-04-15T02:14:11;6.30;98.00
12233;DHT22;6179;51.748;8.728;2023-04-15T02:20:12;6.40;97.80
12233;DHT22;6179;51.748;8.728;2023-04-15T02:26:13;6.30;98.10
12233;DHT22;6179;51.748;8.728;2023-04-15T02:32:14;6.60;96.80
12233;DHT22;6179;51.748;8.728;2023-04-15T02:38:14;6.20;98.30
12233;DHT22;6179;51.748;8.728;2023-04-15T02:44:17;6.10;98.30
12233;DHT22;6179;51.748;8.728;2023-04-15T02:50:19;6.20;98.30
12233;DHT22;6179;51.748;8.728;2023-04-15T02:56:20;6.10;98.30
12233;DHT22;6179;51.748;8.728;2023-04-15T03:02:23;5.90;98.30
12233;DHT22;6179;51.748;8.728;2023-04-15T03:08:24;5.70;98.30
12233;DHT22;6179;51.748;8.728;2023-04-15T03:14:25;5.70;98.30
12233;DHT22;6179;51.748;8.728;2023-04-15T03:20:26;5.70;98.30
12233;DHT22;6179;51.748;8.728;2023-04-15T03:26:28;5.70;98.30
12233;DHT22;6179;51.748;8.728;2023-04-15T03:32:30;5.70;98.30
12233;DHT22;6179;51.748;8.728;2023-04-15T03:38:31;5.80;98.30
12233;DHT22;6179;51.748;8.728;2023-04-15T03:44:31;5.90;98.30
12233;DHT22;6179;51.748;8.728;2023-04-15T03:50:32;5.90;98.30
12233;DHT22;6179;51.748;8.728;2023-04-15T03:56:33;5.80;98.30
12233;DHT22;6179;51.748;8.728;2023-04-15T04:02:34;5.60;98.30
12233;DHT22;6179;51.748;8.728;2023-04-15T04:08:35;5.50;98.30
12233;DHT22;6179;51.748;8.728;2023-04-15T04:14:36;5.50;98.30
12233;DHT22;6179;51.748;8.728;2023-04-15T04:20:36;5.70;98.30
12233;DHT22;6179;51.748;8.728;2023-04-15T04:26:37;5.60;98.30
12233;DHT22;6179;51.748;8.728;2023-04-15T04:32:38;5.50;98.30
12233;DHT22;6179;51.748;8.728;2023-04-15T04:38:38;5.70;98.30
12233;DHT22;6179;51.748;8.728;2023-04-15T04:44:40;5.80;98.30
12233;DHT22;6179;51.748;8.728;2023-04-15T04:50:40;5.80;98.30
12233;DHT22;6179;51.748;8.728;2023-04-15T04:56:41;6.00;98.30
12233;DHT22;6179;51.748;8.728;2023-04-15T05:02:42;6.00;98.30
12233;DHT22;6179;51.748;8.728;2023-04-15T05:08:43;6.10;98.30
12233;DHT22;6179;51.748;8.728;2023-04-15T05:14:45;6.10;98.30
12233;DHT22;6179;51.748;8.728;2023-04-15T05:20:46;6.10;98.30
12233;DHT22;6179;51.748;8.728;2023-04-15T05:26:49;6.20;98.30
12233;DHT22;6179;51.748;8.728;2023-04-15T05:32:50;6.40;98.30
12233;DHT22;6179;51.748;8.728;2023-04-15T05:38:51;6.40;98.30
12233;DHT22;6179;51.748;8.728;2023-04-15T05:44:52;6.80;98.30
12233;DHT22;6179;51.748;8.728;2023-04-15T05:50:52;6.80;98.30
12233;DHT22;6179;51.748;8.728;2023-04-15T05:56:53;6.80;98.30
12233;DHT22;6179;51.748;8.728;2023-04-15T06:02:56;7.00;98.30
12233;DHT22;6179;51.748;8.728;2023-04-15T06:08:58;6.90;98.30
12233;DHT22;6179;51.748;8.728;2023-04-15T06:14:59;6.70;98.30
12233;DHT22;6179;51.748;8.728;2023-04-15T06:21:00;7.10;98.30
12233;DHT22;6179;51.748;8.728;2023-04-15T06:27:01;6.80;98.30
12233;DHT22;6179;51.748;8.728;2023-04-15T06:33:02;6.80;98.30
12233;DHT22;6179;51.748;8.728;2023-04-15T06:39:05;6.90;98.30
12233;DHT22;6179;51.748;8.728;2023-04-15T06:45:06;7.00;98.30
12233;DHT22;6179;51.748;8.728;2023-04-15T06:51:08;7.30;98.30
12233;DHT22;6179;51.748;8.728;2023-04-15T06:57:09;7.40;98.30
12233;DHT22;6179;51.748;8.728;2023-04-15T07:03:11;7.60;98.30
12233;DHT22;6179;51.748;8.728;2023-04-15T07:09:12;7.40;98.30
12233;DHT22;6179;51.748;8.728;2023-04-15T07:15:12;7.80;98.30
12233;DHT22;6179;51.748;8.728;2023-04-15T07:21:13;7.60;98.30
12233;DHT22;6179;51.748;8.728;2023-04-15T07:27:14;8.30;98.30
12233;DHT22;6179;51.748;8.728;2023-04-15T07:33:15;8.20;98.30
12233;DHT22;6179;51.748;8.728;2023-04-15T07:39:17;8.10;98.30
12233;DHT22;6179;51.748;8.728;2023-04-15T07:45:18;8.00;98.30
12233;DHT22;6179;51.748;8.728;2023-04-15T07:51:19;7.80;98.30
12233;DHT22;6179;51.748;8.728;2023-04-15T07:57:20;8.00;98.30
12233;DHT22;6179;51.748;8.728;2023-04-15T08:03:22;8.10;98.30
12233;DHT22;6179;51.748;8.728;2023-04-15T08:09:23;8.40;98.30
12233;DHT22;6179;51.748;8.728;2023-04-15T08:15:24;8.60;98.30
12233;DHT22;6179;51.748;8.728;2023-04-15T08:21:25;8.80;98.30
12233;DHT22;6179;51.748;8.728;2023-04-15T08:27:27;8.50;98.30
12233;DHT22;6179;51.748;8.728;2023-04-15T08:33:27;8.40;98.30
12233;DHT22;6179;51.748;8.728;2023-04-15T08:39:28;8.30;98.30
12233;DHT22;6179;51.748;8.728;2023-04-15T08:45:29;8.70;98.30
12233;DHT22;6179;51.748;8.728;2023-04-15T08:51:31;8.50;98.30
12233;DHT22;6179;51.748;8.728;2023-04-15T08:57:34;8.60;98.30
12233;DHT22;6179;51.748;8.728;2023-04-15T09:03:35;8.50;98.30
12233;DHT22;6179;51.748;8.728;2023-04-15T09:09:37;8.70;98.30
12233;DHT22;6179;51.748;8.728;2023-04-15T09:15:39;8.80;98.30
12233;DHT22;6179;51.748;8.728;2023-04-15T09:21:40;8.80;98.30
12233;DHT22;6179;51.748;8.728;2023-04-15T09:27:51;8.60;98.30
12233;DHT22;6179;51.748;8.728;2023-04-15T09:33:56;8.50;98.30
12233;DHT22;6179;51.748;8.728;2023-04-15T09:39:57;8.70;98.30
12233;DHT22;6179;51.748;8.728;2023-04-15T09:45:58;8.60;98.30
12233;DHT22;6179;51.748;8.728;2023-04-15T09:52:00;8.40;98.30
12233;DHT22;6179;51.748;8.728;2023-04-15T09:58:02;8.10;98.30
12233;DHT22;6179;51.748;8.728;2023-04-15T10:04:09;8.40;98.30
12233;DHT22;6179;51.748;8.728;2023-04-15T10:10:10;8.30;98.30
12233;DHT22;6179;51.748;8.728;2023-04-15T10:16:16;8.30;98.30
12233;DHT22;6179;51.748;8.728;2023-04-15T10:22:20;8.40;98.30
12233;DHT22;6179;51.748;8.728;2023-04-15T10:28:22;8.00;98.30
12233;DHT22;6179;51.748;8.728;2023-04-15T10:34:24;8.50;98.30
12233;DHT22;6179;51.748;8.728;2023-04-15T10:40:30;8.40;98.30
12233;DHT22;6179;51.748;8.728;2023-04-15T10:46:42;8.30;98.30
12233;DHT22;6179;51.748;8.728;2023-04-15T10:52:44;9.00;98.30
12233;DHT22;6179;51.748;8.728;2023-04-15T10:58:45;9.10;98.30
12233;DHT22;6179;51.748;8.728;2023-04-15T11:04:57;8.70;98.30
12233;DHT22;6179;51.748;8.728;2023-04-15T11:10:58;9.00;98.30
12233;DHT22;6179;51.748;8.728;2023-04-15T11:16:59;9.00;98.30
12233;DHT22;6179;51.748;8.728;2023-04-15T11:23:00;8.80;98.30
12233;DHT22;6179;51.748;8.728;2023-04-15T11:29:01;8.80;98.30
12233;DHT22;6179;51.748;8.728;2023-04-15T11:35:02;9.20;98.30
12233;DHT22;6179;51.748;8.728;2023-04-15T11:41:03;9.10;98.30
12233;DHT22;6179;51.748;8.728;2023-04-15T11:47:22;9.50;98.30
12233;DHT22;6179;51.748;8.728;2023-04-15T11:53:24;9.00;98.30
12233;DHT22;6179;51.748;8.728;2023-04-15T11:59:43;9.00;98.30
12233;DHT22;6179;51.748;8.728;2023-04-15T12:06:16;9.20;98.30
12233;DHT22;6179;51.748;8.728;2023-04-15T12:12:27;9.20;98.30
12233;DHT22;6179;51.748;8.728;2023-04-15T12:18:28;9.20;98.30
12233;DHT22;6179;51.748;8.728;2023-04-15T12:24:34;9.50;98.30
12233;DHT22;6179;51.748;8.728;2023-04-15T12:30:36;9.10;98.30
12233;DHT22;6179;51.748;8.728;2023-04-15T12:36:47;8.80;98.30
12233;DHT22;6179;51.748;8.728;2023-04-15T12:42:48;8.50;98.30
12233;DHT22;6179;51.748;8.728;2023-04-15T12:48:50;8.90;98.30
12233;DHT22;6179;51.748;8.728;2023-04-15T12:54:53;8.70;98.30
12233;DHT22;6179;51.748;8.728;2023-04-15T13:00:54;9.00;98.30
12233;DHT22;6179;51.748;8.728;2023-04-15T13:06:56;9.20;98.30
12233;DHT22;6179;51.748;8.728;2023-04-15T13:12:57;9.30;98.30
12233;DHT22;6179;51.748;8.728;2023-04-15T13:18:59;9.20;98.30
12233;DHT22;6179;51.748;8.728;2023-04-15T13:25:01;9.30;98.30
12233;DHT22;6179;51.748;8.728;2023-04-15T13:31:02;9.30;98.30
12233;DHT22;6179;51.748;8.728;2023-04-15T13:37:08;9.60;98.30
12233;DHT22;6179;51.748;8.728;2023-04-15T13:43:09;9.10;98.30
12233;DHT22;6179;51.748;8.728;2023-04-15T13:49:11;9.20;98.30
12233;DHT22;6179;51.748;8.728;2023-04-15T13:55:11;9.40;98.30
12233;DHT22;6179;51.748;8.728;2023-04-15T14:01:12;9.40;98.30
12233;DHT22;6179;51.748;8.728;2023-04-15T14:07:13;9.40;98.30
12233;DHT22;6179;51.748;8.728;2023-04-15T14:13:14;9.50;98.30
12233;DHT22;6179;51.748;8.728;2023-04-15T14:19:16;9.50;98.30
12233;DHT22;6179;51.748;8.728;2023-04-15T14:25:17;9.60;98.30
12233;DHT22;6179;51.748;8.728;2023-04-15T14:31:18;9.50;98.30
12233;DHT22;6179;51.748;8.728;2023-04-15T14:37:19;9.40;98.30
12233;DHT22;6179;51.748;8.728;2023-04-15T14:43:20;9.70;98.30
12233;DHT22;6179;51.748;8.728;2023-04-15T14:49:21;9.30;98.30
12233;DHT22;6179;51.748;8.728;2023-04-15T14:55:22;9.30;98.30
12233;DHT22;6179;51.748;8.728;2023-04-15T15:01:23;9.20;98.30
12233;DHT22;6179;51.748;8.728;2023-04-15T15:07:24;9.40;98.30
12233;DHT22;6179;51.748;8.728;2023-04-15T15:13:25;9.60;98.30
12233;DHT22;6179;51.748;8.728;2023-04-15T15:19:26;9.70;98.30
12233;DHT22;6179;51.748;8.728;2023-04-15T15:25:27;9.50;98.30
12233;DHT22;6179;51.748;8.728;2023-04-15T15:31:28;9.70;98.30
12233;DHT22;6179;51.748;8.728;2023-04-15T15:37:29;9.60;98.30
12233;DHT22;6179;51.748;8.728;2023-04-15T15:43:30;9.70;98.30
12233;DHT22;6179;51.748;8.728;2023-04-15T15:49:31;9.90;98.30
12233;DHT22;6179;51.748;8.728;2023-04-15T15:55:32;9.80;98.30
12233;DHT22;6179;51.748;8.728;2023-04-15T16:01:33;9.60;98.30
12233;DHT22;6179;51.748;8.728;2023-04-15T16:07:34;9.40;98.30
12233;DHT22;6179;51.748;8.728;2023-04-15T16:13:35;9.90;98.30
12233;DHT22;6179;51.748;8.728;2023-04-15T16:19:36;9.50;98.30
12233;DHT22;6179;51.748;8.728;2023-04-15T16:25:37;9.70;98.30
12233;DHT22;6179;51.748;8.728;2023-04-15T16:31:37;9.50;98.30
12233;DHT22;6179;51.748;8.728;2023-04-15T16:37:39;9.50;98.30
12233;DHT22;6179;51.748;8.728;2023-04-15T16:43:41;9.40;98.30
12233;DHT22;6179;51.748;8.728;2023-04-15T16:49:42;9.60;98.30
12233;DHT22;6179;51.748;8.728;2023-04-15T16:55:43;9.50;98.30
12233;DHT22;6179;51.748;8.728;2023-04-15T17:01:43;10.10;98.30
12233;DHT22;6179;51.748;8.728;2023-04-15T17:07:44;9.80;98.30
12233;DHT22;6179;51.748;8.728;2023-04-15T17:13:46;10.10;98.30
12233;DHT22;6179;51.748;8.728;2023-04-15T17:19:46;10.00;98.30
12233;DHT22;6179;51.748;8.728;2023-04-15T17:25:47;10.00;98.30
12233;DHT22;6179;51.748;8.728;2023-04-15T17:31:48;10.20;98.30
12233;DHT22;6179;51.748;8.728;2023-04-15T17:37:49;10.00;98.30
12233;DHT22;6179;51.748;8.728;2023-04-15T17:43:50;9.80;98.30
12233;DHT22;6179;51.748;8.728;2023-04-15T17:49:50;9.90;98.30
12233;DHT22;6179;51.748;8.728;2023-04-15T17:55:51;9.90;98.30
12233;DHT22;6179;51.748;8.728;2023-04-15T18:01:53;9.90;98.30
12233;DHT22;6179;51.748;8.728;2023-04-15T18:07:54;10.00;98.30
12233;DHT22;6179;51.748;8.728;2023-04-15T18:13:55;9.80;98.30
12233;DHT22;6179;51.748;8.728;2023-04-15T18:19:55;9.90;98.30
12233;DHT22;6179;51.748;8.728;2023-04-15T18:25:56;9.80;98.30
12233;DHT22;6179;51.748;8.728;2023-04-15T18:31:57;10.10;98.30
12233;DHT22;6179;51.748;8.728;2023-04-15T18:37:59;9.80;98.30
12233;DHT22;6179;51.748;8.728;2023-04-15T18:44:00;9.80;98.30
12233;DHT22;6179;51.748;8.728;2023-04-15T18:50:01;9.90;98.30
12233;DHT22;6179;51.748;8.728;2023-04-15T18:56:02;9.90;98.30
12233;DHT22;6179;51.748;8.728;2023-04-15T19:02:03;9.70;98.30
12233;DHT22;6179;51.748;8.728;2023-04-15T19:08:06;9.70;98.30
12233;DHT22;6179;51.748;8.728;2023-04-15T19:14:07;9.30;98.30
12233;DHT22;6179;51.748;8.728;2023-04-15T19:20:08;9.30;98.30
12233;DHT22;6179;51.748;8.728;2023-04-15T19:26:10;9.60;98.30
12233;DHT22;6179;51.748;8.728;2023-04-15T19:32:11;9.60;98.30
12233;DHT22;6179;51.748;8.728;2023-04-15T19:38:13;9.70;98.30
12233;DHT22;6179;51.748;8.728;2023-04-15T19:44:14;9.80;98.30
12233;DHT22;6179;51.748;8.728;2023-04-15T19:50:15;10.10;98.30
12233;DHT22;6179;51.748;8.728;2023-04-15T19:56:16;9.70;98.30
12233;DHT22;6179;51.748;8.728;2023-04-15T20:02:17;9.80;98.30
12233;DHT22;6179;51.748;8.728;2023-04-15T20:08:18;9.60;98.30
12233;DHT22;6179;51.748;8.728;2023-04-15T20:14:18;9.50;98.30
12233;DHT22;6179;51.748;8.728;2023-04-15T20:20:20;9.60;98.30
12233;DHT22;6179;51.748;8.728;2023-04-15T20:26:21;9.40;98.30
12233;DHT22;6179;51.748;8.728;2023-04-15T20:32:24;9.50;98.30
12233;DHT22;6179;51.748;8.728;2023-04-15T20:38:26;9.50;98.30
12233;DHT22;6179;51.748;8.728;2023-04-15T20:44:27;9.60;98.30
12233;DHT22;6179;51.748;8.728;2023-04-15T20:50:28;9.80;98.30
12233;DHT22;6179;51.748;8.728;2023-04-15T20:56:29;9.70;98.30
12233;DHT22;6179;51.748;8.728;2023-04-15T21:02:30;9.60;98.30
12233;DHT22;6179;51.748;8.728;2023-04-15T21:08:30;9.80;98.30
12233;DHT22;6179;51.748;8.728;2023-04-15T21:14:31;9.60;98.30
12233;DHT22;6179;51.748;8.728;2023-04-15T21:20:34;9.30;98.30
12233;DHT22;6179;51.748;8.728;2023-04-15T21:26:35;9.40;98.30
12233;DHT22;6179;51.748;8.728;2023-04-15T21:32:36;9.20;98.30
12233;DHT22;6179;51.748;8.728;2023-04-15T21:38:36;9.60;98.30
12233;DHT22;6179;51.748;8.728;2023-04-15T21:44:37;9.20;98.30
12233;DHT22;6179;51.748;8.728;2023-04-15T21:50:38;9.60;98.30
12233;DHT22;6179;51.748;8.728;2023-04-15T21:56:39;9.60;98.30
12233;DHT22;6179;51.748;8.728;2023-04-15T22:02:40;9.80;98.30
12233;DHT22;6179;51.748;8.728;2023-04-15T22:08:41;9.50;98.30
12233;DHT22;6179;51.748;8.728;2023-04-15T22:14:42;9.50;98.30
12233;DHT22;6179;51.748;8.728;2023-04-15T22:20:43;9.50;98.30
12233;DHT22;6179;51.748;8.728;2023-04-15T22:26:44;9.60;98.30
12233;DHT22;6179;51.748;8.728;2023-04-15T22:32:44;9.60;98.30
12233;DHT22;6179;51.748;8.728;2023-04-15T22:38:45;9.80;98.30
12233;DHT22;6179;51.748;8.728;2023-04-15T22:44:46;9.60;98.30
12233;DHT22;6179;51.748;8.728;2023-04-15T22:50:48;9.60;98.30
12233;DHT22;6179;51.748;8.728;2023-04-15T22:56:49;9.60;98.30
12233;DHT22;6179;51.748;8.728;2023-04-15T23:02:50;9.70;98.30
12233;DHT22;6179;51.748;8.728;2023-04-15T23:08:50;9.80;98.30
12233;DHT22;6179;51.748;8.728;2023-04-15T23:14:51;9.60;98.30
12233;DHT22;6179;51.748;8.728;2023-04-15T23:20:52;9.90;98.30
12233;DHT22;6179;51.748;8.728;2023-04-15T23:26:54;9.90;98.30
12233;DHT22;6179;51.748;8.728;2023-04-15T23:32:55;9.80;98.30
12233;DHT22;6179;51.748;8.728;2023-04-15T23:38:57;10.00;98.30
12233;DHT22;6179;51.748;8.728;2023-04-15T23:44:58;10.20;98.30
12233;DHT22;6179;51.748;8.728;2023-04-15T23:50:59;10.00;98.30
12233;DHT22;6179;51.748;8.728;2023-04-15T23:57:01;10.10;98.30
